sensor_id;sensor_type;location;lat;lon;timestamp;temperature;humidity
5711;DHT22;61291;52.524;13.422;2024-01-15T00:00:43;4.10;99.90
5711;DHT22;61291;52.524;13.422;2024-01-15T00:03:09;4.10;99.90
5711;DHT22;61291;52.524;13.422;2024-01-15T00:05:35;4.00;99.90
5711;DHT22;61291;52.524;13.422;2024-01-15T00:08:01;4.00;99.90
5711;DHT22;61291;52.524;13.422;2024-01-15T00:10:27;4.00;99.90
5711;DHT22;61291;52.524;13.422;2024-01-15T00:12:52;3.90;99.90
5711;DHT22;61291;52.524;13.422;2024-01-15T00:15:18;3.80;99.90
5711;DHT22;61291;52.524;13.422;2024-01-15T00:17:43;3.80;99.90
5711;DHT22;61291;52.524;13.422;2024-01-15T00:20:09;3.90;99.90
5711;DHT22;61291;52.524;13.422;2024-01-15T00:22:34;3.80;99.90
5711;DHT22;61291;52.524;13.422;2024-01-15T00:25:03;3.80;99.90
5711;DHT22;61291;52.524;13.422;2024-01-15T00:27:29;3.90;99.90
5711;DHT22;61291;52.524;13.422;2024-01-15T00:29:54;3.90;99.90
5711;DHT22;61291;52.524;13.422;2024-01-15T00:32:20;3.90;99.90
5711;DHT22;61291;52.524;13.422;2024-01-15T00:34:46;3.90;99.90
5711;DHT22;61291;52.524;13.422;2024-01-15T00:37:11;4.00;99.90
5711;DHT22;61291;52.524;13.422;2024-01-15T00:39:37;4.00;99.90
5711;DHT22;61291;52.524;13.422;2024-01-15T00:42:02;4.00;99.90
5711;DHT22;61291;52.524;13.422;2024-01-15T00:44:28;4.00;99.90
5711;DHT22;61291;52.524;13.422;2024-01-15T00:46:53;4.00;99.90
5711;DHT22;61291;52.524;13.422;2024-01-15T00:49:19;4.00;99.90
5711;DHT22;61291;52.524;13.422;2024-01-15T00:51:44;4.00;99.90
5711;DHT22;61291;52.524;13.422;2024-01-15T00:54:10;4.00;99.90
5711;DHT22;61291;52.524;13.422;2024-01-15T00:56:36;3.90;99.90
5711;DHT22;61291;52.524;13.422;2024-01-15T00:59:02;3.90;99.90
5711;DHT22;61291;52.524;13.422;2024-01-15T01:01:28;3.90;99.90
5711;DHT22;61291;52.524;13.422;2024-01-15T01:03:53;3.90;99.90
5711;DHT22;61291;52.524;13.422;2024-01-15T01:06:19;3.90;99.90
5711;DHT22;61291;52.524;13.422;2024-01-15T01:08:44;3.90;99.90
5711;DHT22;61291;52.524;13.422;2024-01-15T01:11:13;3.80;99.90
5711;DHT22;61291;52.524;13.422;2024-01-15T01:13:39;3.80;99.90
5711;DHT22;61291;52.524;13.422;2024-01-15T01:16:04;3.80;99.90
5711;DHT22;61291;52.524;13.422;2024-01-15T01:18:30;3.70;99.90
5711;DHT22;61291;52.524;13.422;2024-01-15T01:20:55;3.60;99.90
5711;DHT22;61291;52.524;13.422;2024-01-15T01:23:20;3.50;99.90
5711;DHT22;61291;52.524;13.422;2024-01-15T01:25:46;3.50;99.90
5711;DHT22;61291;52.524;13.422;2024-01-15T01:28:11;3.50;99.90
5711;DHT22;61291;52.524;13.422;2024-01-15T01:30:37;3.50;99.90
5711;DHT22;61291;52.524;13.422;2024-01-15T01:33:03;3.50;99.90
5711;DHT22;61291;52.524;13.422;2024-01-15T01:35:28;3.40;99.90
5711;DHT22;61291;52.524;13.422;2024-01-15T01:37:54;3.40;99.90
5711;DHT22;61291;52.524;13.422;2024-01-15T01:40:19;3.40;99.90
5711;DHT22;61291;52.524;13.422;2024-01-15T01:42:45;3.40;99.90
5711;DHT22;61291;52.524;13.422;2024-01-15T01:45:11;3.30;99.90
5711;DHT22;61291;52.524;13.422;2024-01-15T01:47:37;3.40;99.90
5711;DHT22;61291;52.524;13.422;2024-01-15T01:50:04;3.30;99.90
5711;DHT22;61291;52.524;13.422;2024-01-15T01:52:30;3.20;99.90
5711;DHT22;61291;52.524;13.422;2024-01-15T01:54:56;3.10;99.90
5711;DHT22;61291;52.524;13.422;2024-01-15T01:57:22;3.00;99.90
5711;DHT22;61291;52.524;13.422;2024-01-15T01:59:48;3.00;99.90
5711;DHT22;61291;52.524;13.422;2024-01-15T02:02:13;3.00;99.90
5711;DHT22;61291;52.524;13.422;2024-01-15T02:04:39;3.00;99.90
5711;DHT22;61291;52.524;13.422;2024-01-15T02:07:05;3.00;99.90
5711;DHT22;61291;52.524;13.422;2024-01-15T02:09:30;3.00;99.90
5711;DHT22;61291;52.524;13.422;2024-01-15T02:11:57;2.90;99.90
5711;DHT22;61291;52.524;13.422;2024-01-15T02:14:23;2.90;99.90
5711;DHT22;61291;52.524;13.422;2024-01-15T02:16:48;2.80;99.90
5711;DHT22;61291;52.524;13.422;2024-01-15T02:19:17;2.80;99.90
5711;DHT22;61291;52.524;13.422;2024-01-15T02:21:43;2.80;99.90
5711;DHT22;61291;52.524;13.422;2024-01-15T02:24:09;2.80;99.90
5711;DHT22;61291;52.524;13.422;2024-01-15T02:26:35;2.80;99.90
5711;DHT22;61291;52.524;13.422;2024-01-15T02:29:02;2.80;99.90
5711;DHT22;61291;52.524;13.422;2024-01-15T02:31:28;2.70;99.90
5711;DHT22;61291;52.524;13.422;2024-01-15T02:33:53;2.80;99.90
5711;DHT22;61291;52.524;13.422;2024-01-15T02:36:19;2.70;99.90
5711;DHT22;61291;52.524;13.422;2024-01-15T02:38:44;2.70;99.90
5711;DHT22;61291;52.524;13.422;2024-01-15T02:41:09;2.70;99.90
5711;DHT22;61291;52.524;13.422;2024-01-15T02:43:35;2.80;99.90
5711;DHT22;61291;52.524;13.422;2024-01-15T02:46:00;2.80;99.90
5711;DHT22;61291;52.524;13.422;2024-01-15T02:48:26;2.70;99.90
5711;DHT22;61291;52.524;13.422;2024-01-15T02:50:51;2.60;99.90
5711;DHT22;61291;52.524;13.422;2024-01-15T02:53:17;2.50;99.90
5711;DHT22;61291;52.524;13.422;2024-01-15T02:55:42;2.60;99.90
5711;DHT22;61291;52.524;13.422;2024-01-15T02:58:08;2.60;99.90
5711;DHT22;61291;52.524;13.422;2024-01-15T03:00:33;2.70;99.90
5711;DHT22;61291;52.524;13.422;2024-01-15T03:02:59;2.80;99.90
5711;DHT22;61291;52.524;13.422;2024-01-15T03:05:24;2.80;99.90
5711;DHT22;61291;52.524;13.422;2024-01-15T03:07:50;2.90;99.90
5711;DHT22;61291;52.524;13.422;2024-01-15T03:10:16;3.00;99.90
5711;DHT22;61291;52.524;13.422;2024-01-15T03:12:41;2.90;99.90
5711;DHT22;61291;52.524;13.422;2024-01-15T03:15:07;3.00;99.90
5711;DHT22;61291;52.524;13.422;2024-01-15T03:17:32;3.00;99.90
5711;DHT22;61291;52.524;13.422;2024-01-15T03:19:58;3.00;99.90
5711;DHT22;61291;52.524;13.422;2024-01-15T03:22:23;3.10;99.90
5711;DHT22;61291;52.524;13.422;2024-01-15T03:24:49;3.10;99.90
5711;DHT22;61291;52.524;13.422;2024-01-15T03:27:14;3.10;99.90
5711;DHT22;61291;52.524;13.422;2024-01-15T03:29:40;3.10;99.90
5711;DHT22;61291;52.524;13.422;2024-01-15T03:32:06;3.10;99.90
5711;DHT22;61291;52.524;13.422;2024-01-15T03:34:32;3.20;99.90
5711;DHT22;61291;52.524;13.422;2024-01-15T03:36:57;3.10;99.90
5711;DHT22;61291;52.524;13.422;2024-01-15T03:39:24;3.20;99.90
5711;DHT22;61291;52.524;13.422;2024-01-15T03:41:49;3.20;99.90
5711;DHT22;61291;52.524;13.422;2024-01-15T03:44:15;3.20;99.90
5711;DHT22;61291;52.524;13.422;2024-01-15T03:46:40;3.20;99.90
5711;DHT22;61291;52.524;13.422;2024-01-15T03:49:05;3.20;99.90
5711;DHT22;61291;52.524;13.422;2024-01-15T03:51:31;3.20;99.90
5711;DHT22;61291;52.524;13.422;2024-01-15T03:53:57;3.20;99.90
5711;DHT22;61291;52.524;13.422;2024-01-15T03:56:22;3.20;99.90
5711;DHT22;61291;52.524;13.422;2024-01-15T03:58:48;3.20;99.90
5711;DHT22;61291;52.524;13.422;2024-01-15T04:01:13;3.20;99.90
5711;DHT22;61291;52.524;13.422;2024-01-15T04:03:38;3.20;99.90
5711;DHT22;61291;52.524;13.422;2024-01-15T04:06:04;3.20;99.90
5711;DHT22;61291;52.524;13.422;2024-01-15T04:08:30;3.20;99.90
5711;DHT22;61291;52.524;13.422;2024-01-15T04:10:55;3.10;99.90
5711;DHT22;61291;52.524;13.422;2024-01-15T04:13:21;3.30;99.90
5711;DHT22;61291;52.524;13.422;2024-01-15T04:15:47;3.20;99.90
5711;DHT22;61291;52.524;13.422;2024-01-15T04:18:12;3.30;99.90
5711;DHT22;61291;52.524;13.422;2024-01-15T04:20:38;3.30;99.90
5711;DHT22;61291;52.524;13.422;2024-01-15T04:23:04;3.30;99.90
5711;DHT22;61291;52.524;13.422;2024-01-15T04:25:30;3.30;99.90
5711;DHT22;61291;52.524;13.422;2024-01-15T04:27:55;3.30;99.90
5711;DHT22;61291;52.524;13.422;2024-01-15T04:30:20;3.30;99.90
5711;DHT22;61291;52.524;13.422;2024-01-15T04:32:46;3.30;99.90
5711;DHT22;61291;52.524;13.422;2024-01-15T04:35:12;3.30;99.90
5711;DHT22;61291;52.524;13.422;2024-01-15T04:37:38;3.40;99.90
5711;DHT22;61291;52.524;13.422;2024-01-15T04:40:04;3.40;99.90
5711;DHT22;61291;52.524;13.422;2024-01-15T04:42:30;3.40;99.90
5711;DHT22;61291;52.524;13.422;2024-01-15T04:44:55;3.40;99.90
5711;DHT22;61291;52.524;13.422;2024-01-15T04:47:21;3.40;99.90
5711;DHT22;61291;52.524;13.422;2024-01-15T04:49:46;3.40;99.90
5711;DHT22;61291;52.524;13.422;2024-01-15T04:52:13;3.40;99.90
5711;DHT22;61291;52.524;13.422;2024-01-15T04:54:38;3.40;99.90
5711;DHT22;61291;52.524;13.422;2024-01-15T04:57:04;3.40;99.90
5711;DHT22;61291;52.524;13.422;2024-01-15T04:59:29;3.40;99.90
5711;DHT22;61291;52.524;13.422;2024-01-15T05:01:55;3.40;99.90
5711;DHT22;61291;52.524;13.422;2024-01-15T05:04:20;3.40;99.90
5711;DHT22;61291;52.524;13.422;2024-01-15T05:06:46;3.40;99.90
5711;DHT22;61291;52.524;13.422;2024-01-15T05:09:11;3.50;99.90
5711;DHT22;61291;52.524;13.422;2024-01-15T05:11:39;3.50;99.90
5711;DHT22;61291;52.524;13.422;2024-01-15T05:14:04;3.50;99.90
5711;DHT22;61291;52.524;13.422;2024-01-15T05:16:29;3.50;99.90
5711;DHT22;61291;52.524;13.422;2024-01-15T05:18:55;3.50;99.90
5711;DHT22;61291;52.524;13.422;2024-01-15T05:21:21;3.50;99.90
5711;DHT22;61291;52.524;13.422;2024-01-15T05:23:46;3.50;99.90
5711;DHT22;61291;52.524;13.422;2024-01-15T05:26:12;3.50;99.90
5711;DHT22;61291;52.524;13.422;2024-01-15T05:28:37;3.50;99.90
5711;DHT22;61291;52.524;13.422;2024-01-15T05:31:03;3.50;99.90
5711;DHT22;61291;52.524;13.422;2024-01-15T05:33:29;3.60;99.90
5711;DHT22;61291;52.524;13.422;2024-01-15T05:35:55;3.60;99.90
5711;DHT22;61291;52.524;13.422;2024-01-15T05:38:21;3.60;99.90
5711;DHT22;61291;52.524;13.422;2024-01-15T05:40:46;3.50;99.90
5711;DHT22;61291;52.524;13.422;2024-01-15T05:43:11;3.50;99.90
5711;DHT22;61291;52.524;13.422;2024-01-15T05:45:38;3.50;99.90
5711;DHT22;61291;52.524;13.422;2024-01-15T05:48:04;3.60;99.90
5711;DHT22;61291;52.524;13.422;2024-01-15T05:50:30;3.60;99.90
5711;DHT22;61291;52.524;13.422;2024-01-15T05:52:55;3.60;99.90
5711;DHT22;61291;52.524;13.422;2024-01-15T05:55:21;3.60;99.90
5711;DHT22;61291;52.524;13.422;2024-01-15T05:57:46;3.70;99.90
5711;DHT22;61291;52.524;13.422;2024-01-15T06:00:12;3.70;99.90
5711;DHT22;61291;52.524;13.422;2024-01-15T06:02:38;3.70;99.90
5711;DHT22;61291;52.524;13.422;2024-01-15T06:05:04;3.70;99.90
5711;DHT22;61291;52.524;13.422;2024-01-15T06:07:30;3.70;99.90
5711;DHT22;61291;52.524;13.422;2024-01-15T06:09:56;3.60;99.90
5711;DHT22;61291;52.524;13.422;2024-01-15T06:12:22;3.60;99.90
5711;DHT22;61291;52.524;13.422;2024-01-15T06:14:48;3.60;99.90
5711;DHT22;61291;52.524;13.422;2024-01-15T06:17:13;3.60;99.90
5711;DHT22;61291;52.524;13.422;2024-01-15T06:19:39;3.60;99.90
5711;DHT22;61291;52.524;13.422;2024-01-15T06:22:04;3.60;99.90
5711;DHT22;61291;52.524;13.422;2024-01-15T06:24:30;3.60;99.90
5711;DHT22;61291;52.524;13.422;2024-01-15T06:26:55;3.60;99.90
5711;DHT22;61291;52.524;13.422;2024-01-15T06:29:21;3.60;99.90
5711;DHT22;61291;52.524;13.422;2024-01-15T06:31:46;3.60;99.90
5711;DHT22;61291;52.524;13.422;2024-01-15T06:34:12;3.60;99.90
5711;DHT22;61291;52.524;13.422;2024-01-15T06:36:37;3.60;99.90
5711;DHT22;61291;52.524;13.422;2024-01-15T06:39:03;3.70;99.90
5711;DHT22;61291;52.524;13.422;2024-01-15T06:41:29;3.70;99.90
5711;DHT22;61291;52.524;13.422;2024-01-15T06:43:54;3.70;99.90
5711;DHT22;61291;52.524;13.422;2024-01-15T06:46:21;3.70;99.90
5711;DHT22;61291;52.524;13.422;2024-01-15T06:48:47;3.70;99.90
5711;DHT22;61291;52.524;13.422;2024-01-15T06:51:12;3.60;99.90
5711;DHT22;61291;52.524;13.422;2024-01-15T06:53:38;3.70;99.90
5711;DHT22;61291;52.524;13.422;2024-01-15T06:56:04;3.70;99.90
5711;DHT22;61291;52.524;13.422;2024-01-15T06:58:31;3.60;99.90
5711;DHT22;61291;52.524;13.422;2024-01-15T07:00:56;3.70;99.90
5711;DHT22;61291;52.524;13.422;2024-01-15T07:03:23;3.60;99.90
5711;DHT22;61291;52.524;13.422;2024-01-15T07:05:48;3.70;99.90
5711;DHT22;61291;52.524;13.422;2024-01-15T07:08:14;3.60;99.90
5711;DHT22;61291;52.524;13.422;2024-01-15T07:10:39;3.70;99.90
5711;DHT22;61291;52.524;13.422;2024-01-15T07:13:05;3.70;99.90
5711;DHT22;61291;52.524;13.422;2024-01-15T07:15:33;3.70;99.90
5711;DHT22;61291;52.524;13.422;2024-01-15T07:17:59;3.80;99.90
5711;DHT22;61291;52.524;13.422;2024-01-15T07:20:24;3.80;99.90
5711;DHT22;61291;52.524;13.422;2024-01-15T07:22:50;3.80;99.90
5711;DHT22;61291;52.524;13.422;2024-01-15T07:25:16;3.80;99.90
5711;DHT22;61291;52.524;13.422;2024-01-15T07:27:42;3.80;99.90
5711;DHT22;61291;52.524;13.422;2024-01-15T07:30:10;3.80;99.90
5711;DHT22;61291;52.524;13.422;2024-01-15T07:32:37;3.80;99.90
5711;DHT22;61291;52.524;13.422;2024-01-15T07:35:03;3.80;99.90
5711;DHT22;61291;52.524;13.422;2024-01-15T07:37:28;3.80;99.90
5711;DHT22;61291;52.524;13.422;2024-01-15T07:39:54;3.90;99.90
5711;DHT22;61291;52.524;13.422;2024-01-15T07:42:19;3.90;99.90
5711;DHT22;61291;52.524;13.422;2024-01-15T07:44:45;3.90;99.90
5711;DHT22;61291;52.524;13.422;2024-01-15T07:47:10;3.90;99.90
5711;DHT22;61291;52.524;13.422;2024-01-15T07:49:36;3.90;99.90
5711;DHT22;61291;52.524;13.422;2024-01-15T07:52:01;4.00;99.90
5711;DHT22;61291;52.524;13.422;2024-01-15T07:54:27;4.00;99.90
5711;DHT22;61291;52.524;13.422;2024-01-15T07:59:19;4.10;99.90
5711;DHT22;61291;52.524;13.422;2024-01-15T08:08:47;4.30;99.90
5711;DHT22;61291;52.524;13.422;2024-01-15T08:11:13;4.40;99.90
5711;DHT22;61291;52.524;13.422;2024-01-15T08:13:38;4.40;99.90
5711;DHT22;61291;52.524;13.422;2024-01-15T08:16:04;4.50;99.90
5711;DHT22;61291;52.524;13.422;2024-01-15T08:18:30;4.60;99.90
5711;DHT22;61291;52.524;13.422;2024-01-15T08:20:55;4.60;99.90
5711;DHT22;61291;52.524;13.422;2024-01-15T08:23:21;4.60;99.90
5711;DHT22;61291;52.524;13.422;2024-01-15T08:25:46;4.50;99.90
5711;DHT22;61291;52.524;13.422;2024-01-15T08:28:12;4.60;99.90
5711;DHT22;61291;52.524;13.422;2024-01-15T08:30:37;4.70;99.90
5711;DHT22;61291;52.524;13.422;2024-01-15T08:33:03;4.80;99.90
5711;DHT22;61291;52.524;13.422;2024-01-15T08:35:29;4.80;99.90
5711;DHT22;61291;52.524;13.422;2024-01-15T08:37:54;4.90;99.90
5711;DHT22;61291;52.524;13.422;2024-01-15T08:40:20;4.90;99.90
5711;DHT22;61291;52.524;13.422;2024-01-15T08:42:46;4.90;99.90
5711;DHT22;61291;52.524;13.422;2024-01-15T08:45:11;4.80;99.90
5711;DHT22;61291;52.524;13.422;2024-01-15T08:47:37;4.80;99.90
5711;DHT22;61291;52.524;13.422;2024-01-15T08:50:04;4.90;99.90
5711;DHT22;61291;52.524;13.422;2024-01-15T08:52:29;5.00;99.90
5711;DHT22;61291;52.524;13.422;2024-01-15T08:54:56;5.10;99.90
5711;DHT22;61291;52.524;13.422;2024-01-15T08:57:22;5.10;99.90
5711;DHT22;61291;52.524;13.422;2024-01-15T08:59:47;5.10;99.90
5711;DHT22;61291;52.524;13.422;2024-01-15T09:02:13;5.00;99.90
5711;DHT22;61291;52.524;13.422;2024-01-15T09:04:38;5.00;99.90
5711;DHT22;61291;52.524;13.422;2024-01-15T09:07:04;4.90;99.90
5711;DHT22;61291;52.524;13.422;2024-01-15T09:09:29;5.00;99.90
5711;DHT22;61291;52.524;13.422;2024-01-15T09:11:55;5.00;99.90
5711;DHT22;61291;52.524;13.422;2024-01-15T09:14:20;5.00;99.90
5711;DHT22;61291;52.524;13.422;2024-01-15T09:16:47;5.00;99.90
5711;DHT22;61291;52.524;13.422;2024-01-15T09:19:13;5.10;99.90
5711;DHT22;61291;52.524;13.422;2024-01-15T09:21:39;5.00;99.90
5711;DHT22;61291;52.524;13.422;2024-01-15T09:24:05;4.90;99.90
5711;DHT22;61291;52.524;13.422;2024-01-15T09:26:30;5.00;99.90
5711;DHT22;61291;52.524;13.422;2024-01-15T09:28:57;5.10;99.90
5711;DHT22;61291;52.524;13.422;2024-01-15T09:31:22;5.30;99.90
5711;DHT22;61291;52.524;13.422;2024-01-15T09:33:49;5.50;99.90
5711;DHT22;61291;52.524;13.422;2024-01-15T09:36:14;5.70;99.90
5711;DHT22;61291;52.524;13.422;2024-01-15T09:38:40;5.80;99.90
5711;DHT22;61291;52.524;13.422;2024-01-15T09:41:07;5.80;99.90
5711;DHT22;61291;52.524;13.422;2024-01-15T09:43:33;5.80;99.90
5711;DHT22;61291;52.524;13.422;2024-01-15T09:45:58;5.80;99.90
5711;DHT22;61291;52.524;13.422;2024-01-15T09:48:24;6.10;99.90
5711;DHT22;61291;52.524;13.422;2024-01-15T09:50:50;6.20;99.90
5711;DHT22;61291;52.524;13.422;2024-01-15T09:53:16;6.50;99.90
5711;DHT22;61291;52.524;13.422;2024-01-15T09:55:42;6.60;99.90
5711;DHT22;61291;52.524;13.422;2024-01-15T09:58:08;6.60;99.90
5711;DHT22;61291;52.524;13.422;2024-01-15T10:00:34;6.70;99.90
5711;DHT22;61291;52.524;13.422;2024-01-15T10:03:04;6.70;99.90
5711;DHT22;61291;52.524;13.422;2024-01-15T10:05:31;6.60;99.90
5711;DHT22;61291;52.524;13.422;2024-01-15T10:07:58;6.50;99.90
5711;DHT22;61291;52.524;13.422;2024-01-15T10:10:26;6.50;99.90
5711;DHT22;61291;52.524;13.422;2024-01-15T10:12:51;6.60;99.90
5711;DHT22;61291;52.524;13.422;2024-01-15T10:15:17;6.60;99.90
5711;DHT22;61291;52.524;13.422;2024-01-15T10:17:43;6.50;99.90
5711;DHT22;61291;52.524;13.422;2024-01-15T10:20:12;6.50;99.90
5711;DHT22;61291;52.524;13.422;2024-01-15T10:22:45;6.20;99.90
5711;DHT22;61291;52.524;13.422;2024-01-15T10:25:12;6.30;99.90
5711;DHT22;61291;52.524;13.422;2024-01-15T10:27:39;6.40;99.90
5711;DHT22;61291;52.524;13.422;2024-01-15T10:30:05;6.60;99.90
5711;DHT22;61291;52.524;13.422;2024-01-15T10:32:31;7.10;99.90
5711;DHT22;61291;52.524;13.422;2024-01-15T10:34:57;7.10;99.90
5711;DHT22;61291;52.524;13.422;2024-01-15T10:37:24;7.30;99.90
5711;DHT22;61291;52.524;13.422;2024-01-15T10:39:50;7.20;99.90
5711;DHT22;61291;52.524;13.422;2024-01-15T10:42:15;6.80;99.90
5711;DHT22;61291;52.524;13.422;2024-01-15T10:44:43;6.70;99.90
5711;DHT22;61291;52.524;13.422;2024-01-15T10:47:09;6.60;99.90
5711;DHT22;61291;52.524;13.422;2024-01-15T10:49:34;6.50;99.90
5711;DHT22;61291;52.524;13.422;2024-01-15T10:52:01;6.40;99.90
5711;DHT22;61291;52.524;13.422;2024-01-15T10:54:27;6.30;99.90
5711;DHT22;61291;52.524;13.422;2024-01-15T10:56:53;6.20;99.90
5711;DHT22;61291;52.524;13.422;2024-01-15T10:59:20;6.20;99.90
5711;DHT22;61291;52.524;13.422;2024-01-15T11:01:47;6.30;99.90
5711;DHT22;61291;52.524;13.422;2024-01-15T11:04:13;6.50;99.90
5711;DHT22;61291;52.524;13.422;2024-01-15T11:06:48;6.70;99.90
5711;DHT22;61291;52.524;13.422;2024-01-15T11:09:15;6.70;99.90
5711;DHT22;61291;52.524;13.422;2024-01-15T11:11:43;6.90;99.90
5711;DHT22;61291;52.524;13.422;2024-01-15T11:14:09;7.10;99.90
5711;DHT22;61291;52.524;13.422;2024-01-15T11:16:55;7.00;99.90
5711;DHT22;61291;52.524;13.422;2024-01-15T11:19:53;6.70;99.90
5711;DHT22;61291;52.524;13.422;2024-01-15T11:25:22;6.20;99.90
5711;DHT22;61291;52.524;13.422;2024-01-15T11:27:52;6.00;99.90
5711;DHT22;61291;52.524;13.422;2024-01-15T11:30:19;6.10;99.90
5711;DHT22;61291;52.524;13.422;2024-01-15T11:32:45;6.00;99.90
5711;DHT22;61291;52.524;13.422;2024-01-15T11:35:12;6.10;99.90
5711;DHT22;61291;52.524;13.422;2024-01-15T11:42:58;6.30;99.90
5711;DHT22;61291;52.524;13.422;2024-01-15T11:45:24;6.20;99.90
5711;DHT22;61291;52.524;13.422;2024-01-15T11:48:11;6.10;99.90
5711;DHT22;61291;52.524;13.422;2024-01-15T11:50:43;5.90;99.90
5711;DHT22;61291;52.524;13.422;2024-01-15T11:53:37;5.80;99.90
5711;DHT22;61291;52.524;13.422;2024-01-15T11:56:12;5.50;99.90
5711;DHT22;61291;52.524;13.422;2024-01-15T11:58:40;5.20;99.90
5711;DHT22;61291;52.524;13.422;2024-01-15T12:01:05;4.80;99.90
5711;DHT22;61291;52.524;13.422;2024-01-15T12:03:32;4.50;99.90
5711;DHT22;61291;52.524;13.422;2024-01-15T12:05:58;4.40;99.90
5711;DHT22;61291;52.524;13.422;2024-01-15T12:08:25;4.30;99.90
5711;DHT22;61291;52.524;13.422;2024-01-15T12:10:52;4.40;99.90
5711;DHT22;61291;52.524;13.422;2024-01-15T12:13:18;4.40;99.90
5711;DHT22;61291;52.524;13.422;2024-01-15T12:15:45;4.40;99.90
5711;DHT22;61291;52.524;13.422;2024-01-15T12:18:13;4.40;99.90
5711;DHT22;61291;52.524;13.422;2024-01-15T12:20:40;4.40;99.90
5711;DHT22;61291;52.524;13.422;2024-01-15T12:23:05;4.40;99.90
5711;DHT22;61291;52.524;13.422;2024-01-15T12:25:32;4.30;99.90
5711;DHT22;61291;52.524;13.422;2024-01-15T12:27:59;4.30;99.90
5711;DHT22;61291;52.524;13.422;2024-01-15T12:30:29;4.30;99.90
5711;DHT22;61291;52.524;13.422;2024-01-15T12:32:57;4.30;99.90
5711;DHT22;61291;52.524;13.422;2024-01-15T12:35:24;4.30;99.90
5711;DHT22;61291;52.524;13.422;2024-01-15T12:37:49;4.40;99.90
5711;DHT22;61291;52.524;13.422;2024-01-15T12:40:19;4.40;99.90
5711;DHT22;61291;52.524;13.422;2024-01-15T12:42:45;4.40;99.90
5711;DHT22;61291;52.524;13.422;2024-01-15T12:45:12;4.30;99.90
5711;DHT22;61291;52.524;13.422;2024-01-15T12:47:38;4.30;99.90
5711;DHT22;61291;52.524;13.422;2024-01-15T12:50:09;4.40;99.90
5711;DHT22;61291;52.524;13.422;2024-01-15T12:52:35;4.40;99.90
5711;DHT22;61291;52.524;13.422;2024-01-15T12:55:06;4.30;99.90
5711;DHT22;61291;52.524;13.422;2024-01-15T12:57:33;4.40;99.90
5711;DHT22;61291;52.524;13.422;2024-01-15T12:59:59;4.40;99.90
5711;DHT22;61291;52.524;13.422;2024-01-15T13:02:25;4.40;99.90
5711;DHT22;61291;52.524;13.422;2024-01-15T13:04:50;4.50;99.90
5711;DHT22;61291;52.524;13.422;2024-01-15T13:07:16;4.50;99.90
5711;DHT22;61291;52.524;13.422;2024-01-15T13:09:42;4.60;99.90
5711;DHT22;61291;52.524;13.422;2024-01-15T13:12:08;4.70;99.90
5711;DHT22;61291;52.524;13.422;2024-01-15T13:14:34;4.90;99.90
5711;DHT22;61291;52.524;13.422;2024-01-15T13:16:59;4.80;99.90
5711;DHT22;61291;52.524;13.422;2024-01-15T13:19:25;4.80;99.90
5711;DHT22;61291;52.524;13.422;2024-01-15T13:21:50;4.70;99.90
5711;DHT22;61291;52.524;13.422;2024-01-15T13:24:17;4.60;99.90
5711;DHT22;61291;52.524;13.422;2024-01-15T13:26:42;4.60;99.90
5711;DHT22;61291;52.524;13.422;2024-01-15T13:29:08;4.60;99.90
5711;DHT22;61291;52.524;13.422;2024-01-15T13:31:34;4.70;99.90
5711;DHT22;61291;52.524;13.422;2024-01-15T13:34:00;4.70;99.90
5711;DHT22;61291;52.524;13.422;2024-01-15T13:36:26;4.60;99.90
5711;DHT22;61291;52.524;13.422;2024-01-15T13:38:53;4.60;99.90
5711;DHT22;61291;52.524;13.422;2024-01-15T13:41:19;4.50;99.90
5711;DHT22;61291;52.524;13.422;2024-01-15T13:43:49;4.60;99.90
5711;DHT22;61291;52.524;13.422;2024-01-15T13:46:16;4.60;99.90
5711;DHT22;61291;52.524;13.422;2024-01-15T13:48:42;4.50;99.90
5711;DHT22;61291;52.524;13.422;2024-01-15T13:51:08;4.40;99.90
5711;DHT22;61291;52.524;13.422;2024-01-15T13:53:33;4.40;99.90
5711;DHT22;61291;52.524;13.422;2024-01-15T13:55:59;4.50;99.90
5711;DHT22;61291;52.524;13.422;2024-01-15T13:58:24;4.50;99.90
5711;DHT22;61291;52.524;13.422;2024-01-15T14:00:51;4.50;99.90
5711;DHT22;61291;52.524;13.422;2024-01-15T14:03:16;4.50;99.90
5711;DHT22;61291;52.524;13.422;2024-01-15T14:05:42;4.50;99.90
5711;DHT22;61291;52.524;13.422;2024-01-15T14:08:07;4.50;99.90
5711;DHT22;61291;52.524;13.422;2024-01-15T14:10:33;4.50;99.90
5711;DHT22;61291;52.524;13.422;2024-01-15T14:12:58;4.50;99.90
5711;DHT22;61291;52.524;13.422;2024-01-15T14:15:24;4.40;99.90
5711;DHT22;61291;52.524;13.422;2024-01-15T14:17:49;4.40;99.90
5711;DHT22;61291;52.524;13.422;2024-01-15T14:20:15;4.40;99.90
5711;DHT22;61291;52.524;13.422;2024-01-15T14:22:40;4.40;99.90
5711;DHT22;61291;52.524;13.422;2024-01-15T14:25:07;4.40;99.90
5711;DHT22;61291;52.524;13.422;2024-01-15T14:27:32;4.40;99.90
5711;DHT22;61291;52.524;13.422;2024-01-15T14:29:58;4.20;99.90
5711;DHT22;61291;52.524;13.422;2024-01-15T14:32:23;4.20;99.90
5711;DHT22;61291;52.524;13.422;2024-01-15T14:34:49;4.10;99.90
5711;DHT22;61291;52.524;13.422;2024-01-15T14:37:14;4.20;99.90
5711;DHT22;61291;52.524;13.422;2024-01-15T14:39:40;4.20;99.90
5711;DHT22;61291;52.524;13.422;2024-01-15T14:42:05;4.10;99.90
5711;DHT22;61291;52.524;13.422;2024-01-15T14:44:31;4.00;99.90
5711;DHT22;61291;52.524;13.422;2024-01-15T14:46:58;4.00;99.90
5711;DHT22;61291;52.524;13.422;2024-01-15T14:49:24;4.10;99.90
5711;DHT22;61291;52.524;13.422;2024-01-15T14:51:50;4.00;99.90
5711;DHT22;61291;52.524;13.422;2024-01-15T14:54:16;4.00;99.90
5711;DHT22;61291;52.524;13.422;2024-01-15T14:56:41;3.90;99.90
5711;DHT22;61291;52.524;13.422;2024-01-15T14:59:08;3.90;99.90
5711;DHT22;61291;52.524;13.422;2024-01-15T15:01:33;3.90;99.90
5711;DHT22;61291;52.524;13.422;2024-01-15T15:03:59;3.90;99.90
5711;DHT22;61291;52.524;13.422;2024-01-15T15:06:25;3.80;99.90
5711;DHT22;61291;52.524;13.422;2024-01-15T15:08:53;3.70;99.90
5711;DHT22;61291;52.524;13.422;2024-01-15T15:11:20;3.70;99.90
5711;DHT22;61291;52.524;13.422;2024-01-15T15:13:48;3.80;99.90
5711;DHT22;61291;52.524;13.422;2024-01-15T15:16:15;3.70;99.90
5711;DHT22;61291;52.524;13.422;2024-01-15T15:18:40;3.60;99.90
5711;DHT22;61291;52.524;13.422;2024-01-15T15:21:08;3.50;99.90
5711;DHT22;61291;52.524;13.422;2024-01-15T15:23:34;3.30;99.90
5711;DHT22;61291;52.524;13.422;2024-01-15T15:25:59;3.20;99.90
5711;DHT22;61291;52.524;13.422;2024-01-15T15:28:24;3.00;99.90
5711;DHT22;61291;52.524;13.422;2024-01-15T15:30:50;2.90;99.90
5711;DHT22;61291;52.524;13.422;2024-01-15T15:33:16;2.80;99.90
5711;DHT22;61291;52.524;13.422;2024-01-15T15:35:43;2.80;99.90
5711;DHT22;61291;52.524;13.422;2024-01-15T15:38:09;2.70;99.90
5711;DHT22;61291;52.524;13.422;2024-01-15T15:40:34;2.70;99.90
5711;DHT22;61291;52.524;13.422;2024-01-15T15:43:00;2.70;99.90
5711;DHT22;61291;52.524;13.422;2024-01-15T15:45:25;2.60;99.90
5711;DHT22;61291;52.524;13.422;2024-01-15T15:47:51;2.60;99.90
5711;DHT22;61291;52.524;13.422;2024-01-15T15:50:16;2.60;99.90
5711;DHT22;61291;52.524;13.422;2024-01-15T15:52:42;2.60;99.90
5711;DHT22;61291;52.524;13.422;2024-01-15T15:55:07;2.50;99.90